Time;durP1;ratioP1;P1;durP2;ratioP2;P2;SDS_P1;SDS_P2;PMS_P1;PMS_P2;Temp;Humidity;BMP_temperature;BMP_pressure;BME280_temperature;BME280_humidity;BME280_pressure;Samples;Min_cycle;Max_cycle;Signal;HPM_P1;HPM_P2
2021/12/30 00:00:10;;;;;;;0.70;0.70;;;12.90;99.90;;;;;;4994303;28;20583;-71
2021/12/30 00:02:36;;;;;;;1.03;0.90;;;12.90;99.90;;;;;;4994298;28;20180;-71
2021/12/30 00:05:02;;;;;;;0.83;0.83;;;12.80;99.90;;;;;;4993488;28;20460;-71
2021/12/30 00:07:28;;;;;;;0.80;0.80;;;12.80;99.90;;;;;;4993786;28;20320;-72
2021/12/30 00:09:54;;;;;;;0.70;0.60;;;12.80;99.90;;;;;;4992361;28;20423;-71
2021/12/30 00:12:20;;;;;;;1.53;1.43;;;12.70;99.90;;;;;;4993105;28;20796;-72
2021/12/30 00:14:45;;;;;;;1.00;1.00;;;12.70;99.90;;;;;;4992655;28;20247;-71
2021/12/30 00:17:11;;;;;;;0.70;0.60;;;12.70;99.90;;;;;;4992798;28;20184;-71
2021/12/30 00:19:37;;;;;;;1.00;0.67;;;12.70;99.90;;;;;;4992990;28;20211;-71
2021/12/30 00:22:03;;;;;;;0.87;0.87;;;12.60;99.90;;;;;;4988245;28;20174;-71
2021/12/30 00:24:28;;;;;;;0.70;0.60;;;12.60;99.90;;;;;;4981758;28;20260;-71
2021/12/30 00:26:54;;;;;;;3.03;2.10;;;12.60;99.90;;;;;;4992916;28;20788;-71
2021/12/30 00:29:20;;;;;;;0.70;0.60;;;12.60;99.90;;;;;;4993155;28;20180;-71
2021/12/30 00:31:46;;;;;;;0.70;0.70;;;12.70;99.90;;;;;;4992843;28;20212;-71
2021/12/30 00:34:12;;;;;;;0.70;0.70;;;12.60;99.90;;;;;;4992703;28;20467;-71
2021/12/30 00:36:37;;;;;;;7.03;1.63;;;12.60;99.90;;;;;;4981455;28;20260;-71
2021/12/30 00:39:03;;;;;;;0.73;0.73;;;12.60;99.90;;;;;;4985800;28;20655;-71
2021/12/30 00:41:29;;;;;;;1.17;1.13;;;12.60;99.90;;;;;;4992463;28;20172;-71
2021/12/30 00:43:54;;;;;;;0.70;0.70;;;12.70;99.90;;;;;;4992623;28;20204;-71
2021/12/30 00:46:20;;;;;;;1.00;0.90;;;12.70;99.90;;;;;;4992801;28;20173;-71
2021/12/30 00:48:46;;;;;;;1.13;1.03;;;12.70;99.90;;;;;;4993510;28;20184;-71
2021/12/30 00:51:11;;;;;;;0.77;0.77;;;12.70;99.90;;;;;;4993855;28;20176;-71
2021/12/30 00:53:38;;;;;;;0.70;0.60;;;12.70;99.90;;;;;;4976629;28;20223;-71
2021/12/30 00:56:03;;;;;;;0.80;0.80;;;12.80;99.90;;;;;;4981381;28;20181;-71
2021/12/30 00:58:29;;;;;;;0.70;0.70;;;12.80;99.90;;;;;;4992612;28;20454;-71
2021/12/30 01:00:55;;;;;;;0.60;0.50;;;12.70;99.90;;;;;;4992615;28;20407;-71
2021/12/30 01:03:21;;;;;;;0.60;0.60;;;12.80;99.90;;;;;;4995683;28;20195;-71
2021/12/30 01:05:47;;;;;;;0.63;0.60;;;12.80;99.90;;;;;;4995962;28;20460;-70
2021/12/30 01:08:14;;;;;;;0.70;0.60;;;12.70;99.90;;;;;;4994904;28;20427;-70
2021/12/30 01:10:42;;;;;;;0.70;0.60;;;12.70;99.90;;;;;;4996282;28;20536;-71
2021/12/30 01:13:15;;;;;;;0.60;0.60;;;12.70;99.90;;;;;;4996251;28;20451;-71
2021/12/30 01:15:56;;;;;;;0.60;0.60;;;12.70;99.90;;;;;;4997260;28;20415;-71
2021/12/30 01:18:40;;;;;;;0.70;0.70;;;12.60;99.90;;;;;;4996417;28;20959;-71
2021/12/30 01:21:10;;;;;;;0.60;0.57;;;12.70;99.90;;;;;;4996234;28;20431;-71
2021/12/30 01:23:35;;;;;;;0.70;0.60;;;12.70;99.90;;;;;;4995591;28;20443;-72
2021/12/30 01:26:02;;;;;;;0.60;0.57;;;12.70;99.90;;;;;;4982467;28;20421;-71
2021/12/30 01:28:28;;;;;;;0.83;0.80;;;12.70;99.90;;;;;;4976562;28;20170;-70
2021/12/30 01:30:54;;;;;;;0.60;0.60;;;12.70;99.90;;;;;;4976606;28;20419;-70
2021/12/30 01:33:20;;;;;;;1.23;1.23;;;12.80;99.90;;;;;;4993821;28;20541;-71
2021/12/30 01:35:46;;;;;;;0.70;0.60;;;12.80;99.90;;;;;;4995462;28;20782;-71
2021/12/30 01:38:15;;;;;;;0.70;0.67;;;12.80;99.90;;;;;;4995730;28;20865;-71
2021/12/30 01:40:41;;;;;;;2.77;2.57;;;12.80;99.90;;;;;;4995389;28;20183;-71
2021/12/30 01:43:07;;;;;;;0.60;0.50;;;12.80;99.90;;;;;;4976334;28;21016;-71
2021/12/30 01:45:34;;;;;;;0.70;0.60;;;12.80;99.90;;;;;;4975983;28;20449;-71
2021/12/30 01:48:00;;;;;;;0.70;0.60;;;12.80;99.90;;;;;;4976276;28;20405;-70
2021/12/30 01:50:26;;;;;;;0.70;0.67;;;12.80;99.90;;;;;;4987257;28;20426;-71
2021/12/30 01:52:52;;;;;;;0.60;0.60;;;12.90;99.90;;;;;;4995891;28;20823;-71
2021/12/30 01:55:19;;;;;;;1.67;1.57;;;12.90;99.90;;;;;;4994292;28;20276;-71
2021/12/30 01:57:47;;;;;;;2.00;1.90;;;12.90;99.90;;;;;;4993006;28;20424;-72
2021/12/30 02:00:17;;;;;;;0.70;0.63;;;13.00;99.90;;;;;;4994359;28;20408;-71
2021/12/30 02:02:43;;;;;;;0.80;0.70;;;13.00;99.90;;;;;;4994056;28;20404;-72
2021/12/30 02:05:09;;;;;;;2.70;2.50;;;13.00;99.90;;;;;;4993816;28;20460;-72
2021/12/30 02:07:36;;;;;;;0.60;0.60;;;13.00;99.90;;;;;;4994242;28;20766;-71
2021/12/30 02:10:02;;;;;;;0.60;0.60;;;13.10;99.90;;;;;;4994054;28;20428;-71
2021/12/30 02:12:33;;;;;;;1.67;1.57;;;13.10;99.90;;;;;;4993425;28;20421;-71
2021/12/30 02:14:59;;;;;;;0.70;0.60;;;13.00;99.90;;;;;;4990822;28;20451;-71
2021/12/30 02:17:25;;;;;;;2.63;2.43;;;13.00;99.90;;;;;;4993897;28;20423;-71
2021/12/30 02:19:50;;;;;;;0.60;0.60;;;13.10;99.90;;;;;;4993719;28;20252;-71
2021/12/30 02:22:16;;;;;;;0.70;0.60;;;13.10;99.90;;;;;;4993694;28;20177;-71
2021/12/30 02:24:49;;;;;;;0.60;0.60;;;13.10;99.90;;;;;;4993783;28;20206;-71
2021/12/30 02:27:15;;;;;;;0.90;0.90;;;13.10;99.90;;;;;;4992498;28;20650;-72
2021/12/30 02:29:41;;;;;;;0.70;0.60;;;13.10;99.90;;;;;;4974471;28;20487;-71
2021/12/30 02:32:06;;;;;;;1.30;0.97;;;13.20;99.90;;;;;;4974422;28;20173;-71
2021/12/30 02:34:32;;;;;;;0.80;0.80;;;13.20;99.90;;;;;;4974213;28;20190;-71
2021/12/30 02:36:58;;;;;;;1.17;1.10;;;13.20;99.90;;;;;;4992793;28;20590;-71
2021/12/30 02:39:24;;;;;;;0.60;0.60;;;13.20;99.90;;;;;;4993788;28;20463;-71
2021/12/30 02:41:51;;;;;;;0.87;0.60;;;13.30;99.90;;;;;;4993441;28;20264;-71
2021/12/30 02:44:18;;;;;;;0.70;0.70;;;13.20;99.90;;;;;;4991899;28;20815;-71
2021/12/30 02:46:43;;;;;;;1.83;1.73;;;13.30;99.90;;;;;;4993337;28;20419;-73
2021/12/30 02:49:10;;;;;;;0.60;0.60;;;13.30;99.90;;;;;;4992365;28;20455;-71
2021/12/30 02:51:36;;;;;;;4.33;2.97;;;13.30;99.90;;;;;;4992968;28;20416;-71
2021/12/30 02:54:04;;;;;;;0.70;0.60;;;13.20;99.90;;;;;;4958356;28;1056410;-71
2021/12/30 02:56:30;;;;;;;0.70;0.70;;;13.30;99.90;;;;;;4993703;28;20180;-71
2021/12/30 02:58:56;;;;;;;1.63;0.83;;;13.20;99.90;;;;;;4994501;28;20905;-71
2021/12/30 03:01:28;;;;;;;0.70;0.60;;;13.30;99.90;;;;;;4978541;28;20417;-70
2021/12/30 03:03:55;;;;;;;1.37;1.27;;;13.20;99.90;;;;;;4974741;28;20457;-70
2021/12/30 03:06:21;;;;;;;0.70;0.60;;;13.20;99.90;;;;;;4992508;28;20424;-72
2021/12/30 03:08:48;;;;;;;1.27;1.17;;;13.20;99.90;;;;;;4995049;28;20495;-71
2021/12/30 03:11:15;;;;;;;0.70;0.60;;;13.10;99.90;;;;;;4993366;28;20173;-71
2021/12/30 03:13:43;;;;;;;1.10;1.00;;;13.10;99.90;;;;;;4994654;28;20530;-71
2021/12/30 03:16:15;;;;;;;0.70;0.60;;;13.10;99.90;;;;;;4994487;28;20434;-71
2021/12/30 03:18:44;;;;;;;1.03;0.97;;;13.10;99.90;;;;;;4994662;28;20416;-71
2021/12/30 03:21:11;;;;;;;0.60;0.60;;;13.00;99.90;;;;;;4995015;28;20400;-71
2021/12/30 03:23:37;;;;;;;0.60;0.60;;;13.00;99.90;;;;;;4994857;28;20842;-71
2021/12/30 03:26:04;;;;;;;1.33;1.00;;;13.00;99.90;;;;;;4993555;28;20405;-71
2021/12/30 03:28:30;;;;;;;0.60;0.60;;;13.00;99.90;;;;;;4994850;28;20443;-71
2021/12/30 03:30:58;;;;;;;0.87;0.83;;;13.00;99.90;;;;;;4994636;28;20790;-71
2021/12/30 03:33:28;;;;;;;0.67;0.63;;;13.00;99.90;;;;;;4984196;28;20197;-71
2021/12/30 03:35:54;;;;;;;1.57;0.80;;;13.00;99.90;;;;;;4989768;28;20871;-71
2021/12/30 03:38:19;;;;;;;2.40;2.00;;;13.00;99.90;;;;;;4994387;28;20467;-71
2021/12/30 03:40:45;;;;;;;0.60;0.60;;;13.00;99.90;;;;;;4993410;28;20930;-71
2021/12/30 03:43:11;;;;;;;0.70;0.60;;;13.00;99.90;;;;;;4993512;28;20189;-71
2021/12/30 03:45:36;;;;;;;1.93;0.70;;;13.00;99.90;;;;;;4992010;28;20678;-71
2021/12/30 03:48:02;;;;;;;0.60;0.60;;;12.90;99.90;;;;;;4992406;28;20665;-71
2021/12/30 03:50:29;;;;;;;0.60;0.50;;;13.00;99.90;;;;;;4993049;28;20165;-71
2021/12/30 03:53:02;;;;;;;1.07;0.80;;;13.00;99.90;;;;;;4993421;28;20435;-71
2021/12/30 03:55:30;;;;;;;0.70;0.60;;;13.00;99.90;;;;;;4993033;28;20519;-71
2021/12/30 03:57:56;;;;;;;0.70;0.70;;;13.00;99.90;;;;;;4993054;28;20490;-71
2021/12/30 04:00:26;;;;;;;4.00;1.33;;;13.00;99.90;;;;;;4993232;28;20411;-70
2021/12/30 04:02:51;;;;;;;0.70;0.70;;;13.00;99.90;;;;;;4992798;28;20427;-70
2021/12/30 04:05:17;;;;;;;0.80;0.80;;;13.00;99.90;;;;;;4991405;28;20462;-71
2021/12/30 04:07:43;;;;;;;1.00;0.90;;;13.00;99.90;;;;;;4992965;28;20177;-71
2021/12/30 04:10:13;;;;;;;0.70;0.60;;;13.00;99.90;;;;;;4993015;28;21175;-71
2021/12/30 04:12:38;;;;;;;0.60;0.60;;;13.00;99.90;;;;;;4993088;28;20205;-71
2021/12/30 04:15:05;;;;;;;0.60;0.60;;;13.00;99.90;;;;;;4992448;28;21044;-70
2021/12/30 04:17:30;;;;;;;0.60;0.60;;;13.00;99.90;;;;;;4992724;28;20548;-71
2021/12/30 04:19:56;;;;;;;1.43;1.33;;;13.00;99.90;;;;;;4993035;28;20400;-70
2021/12/30 04:22:22;;;;;;;1.10;1.10;;;13.00;99.90;;;;;;4991440;28;20181;-70
2021/12/30 04:24:48;;;;;;;0.60;0.60;;;13.10;99.90;;;;;;4992605;28;20200;-71
2021/12/30 04:27:14;;;;;;;0.73;0.73;;;13.10;99.90;;;;;;4992532;28;20169;-70
2021/12/30 04:29:39;;;;;;;0.60;0.60;;;13.10;99.90;;;;;;4992866;28;20404;-71
2021/12/30 04:32:06;;;;;;;0.60;0.60;;;13.10;99.90;;;;;;4992779;28;20491;-71
2021/12/30 04:34:31;;;;;;;0.60;0.50;;;13.20;99.90;;;;;;4992746;28;20197;-71
2021/12/30 04:36:59;;;;;;;0.60;0.60;;;13.20;99.90;;;;;;4992241;28;20436;-71
2021/12/30 04:39:27;;;;;;;0.60;0.53;;;13.20;99.90;;;;;;4991220;28;20207;-71
2021/12/30 04:41:52;;;;;;;0.60;0.53;;;13.30;99.90;;;;;;4992712;28;20404;-71
2021/12/30 04:44:18;;;;;;;0.60;0.60;;;13.30;99.90;;;;;;4993569;28;20487;-71
2021/12/30 04:46:43;;;;;;;0.60;0.60;;;13.30;99.90;;;;;;4993508;28;20687;-71
2021/12/30 04:49:09;;;;;;;0.70;0.60;;;13.30;99.90;;;;;;4993748;28;20263;-71
2021/12/30 04:51:34;;;;;;;0.60;0.60;;;13.40;99.90;;;;;;4993398;28;20215;-71
2021/12/30 04:54:00;;;;;;;0.60;0.60;;;13.40;99.90;;;;;;4992668;28;20200;-69
2021/12/30 04:56:26;;;;;;;1.73;0.80;;;13.40;99.90;;;;;;4993764;28;20173;-69
2021/12/30 04:58:51;;;;;;;0.60;0.57;;;13.40;99.90;;;;;;4993900;28;20646;-71
2021/12/30 05:01:17;;;;;;;0.60;0.60;;;13.50;99.90;;;;;;4993515;28;20242;-71
2021/12/30 05:03:42;;;;;;;0.60;0.60;;;13.50;99.90;;;;;;4993614;28;20208;-71
2021/12/30 05:06:08;;;;;;;1.00;0.70;;;13.60;99.90;;;;;;4993415;28;20172;-71
2021/12/30 05:08:34;;;;;;;0.87;0.87;;;13.60;99.90;;;;;;4993515;28;20510;-71
2021/12/30 05:11:00;;;;;;;0.60;0.50;;;13.60;99.90;;;;;;4992353;28;20169;-71
2021/12/30 05:13:25;;;;;;;0.60;0.60;;;13.70;99.90;;;;;;4993416;28;20193;-71
2021/12/30 05:15:51;;;;;;;0.60;0.57;;;13.70;99.90;;;;;;4993069;28;20434;-71
2021/12/30 05:18:18;;;;;;;1.53;0.80;;;13.70;99.90;;;;;;4992767;28;20200;-72
2021/12/30 05:20:44;;;;;;;2.20;2.10;;;13.80;99.90;;;;;;4994060;28;20257;-72
2021/12/30 05:23:10;;;;;;;0.60;0.60;;;13.80;99.90;;;;;;4993729;28;20476;-68
2021/12/30 05:25:36;;;;;;;0.60;0.60;;;13.80;99.90;;;;;;4993365;28;20185;-69
2021/12/30 05:28:02;;;;;;;1.13;1.03;;;13.80;99.90;;;;;;4992662;28;20216;-70
2021/12/30 05:30:28;;;;;;;0.60;0.60;;;13.90;99.90;;;;;;4993464;28;20930;-70
2021/12/30 05:32:56;;;;;;;1.53;1.43;;;13.90;99.90;;;;;;4993480;28;20173;-69
2021/12/30 05:35:22;;;;;;;0.60;0.60;;;14.00;99.90;;;;;;4993143;28;20177;-70
2021/12/30 05:37:48;;;;;;;0.80;0.80;;;14.00;99.90;;;;;;4993380;28;20427;-69
2021/12/30 05:40:17;;;;;;;0.60;0.60;;;14.00;99.90;;;;;;4993122;28;20523;-70
2021/12/30 05:42:44;;;;;;;0.60;0.60;;;14.10;99.90;;;;;;4991999;28;20937;-70
2021/12/30 05:45:10;;;;;;;1.37;1.00;;;14.10;99.90;;;;;;4992780;28;20460;-70
2021/12/30 05:47:36;;;;;;;0.60;0.60;;;14.10;99.90;;;;;;4993934;28;20444;-70
2021/12/30 05:50:05;;;;;;;13.90;2.63;;;14.20;99.90;;;;;;4996983;28;20419;-70
2021/12/30 05:52:31;;;;;;;0.60;0.60;;;14.20;99.90;;;;;;4995721;28;20416;-70
2021/12/30 05:54:56;;;;;;;0.70;0.60;;;14.20;99.90;;;;;;4996199;28;20534;-69
2021/12/30 05:57:22;;;;;;;0.80;0.73;;;14.20;99.90;;;;;;4997042;28;20177;-69
2021/12/30 05:59:48;;;;;;;0.63;0.60;;;14.20;99.90;;;;;;4994796;28;20193;-70
2021/12/30 06:02:13;;;;;;;0.70;0.60;;;14.30;99.90;;;;;;4995669;28;20184;-69
2021/12/30 06:04:41;;;;;;;0.60;0.60;;;14.30;99.90;;;;;;4996548;28;20693;-70
2021/12/30 06:07:07;;;;;;;0.60;0.57;;;14.30;99.90;;;;;;4996629;28;20165;-70
2021/12/30 06:09:33;;;;;;;0.60;0.60;;;14.30;99.90;;;;;;4996616;28;20894;-70
2021/12/30 06:11:58;;;;;;;0.60;0.60;;;14.30;99.90;;;;;;4996366;28;20427;-70
2021/12/30 06:14:24;;;;;;;0.60;0.60;;;14.30;99.90;;;;;;4997034;28;20224;-70
2021/12/30 06:16:49;;;;;;;1.43;1.33;;;14.30;99.90;;;;;;4995305;28;20189;-70
2021/12/30 06:19:15;;;;;;;0.70;0.60;;;14.30;99.90;;;;;;4996849;28;20168;-70
2021/12/30 06:21:40;;;;;;;0.60;0.60;;;14.30;99.90;;;;;;4997002;28;20260;-70
2021/12/30 06:24:06;;;;;;;1.63;1.27;;;14.40;99.90;;;;;;4996613;28;20212;-70
2021/12/30 06:26:32;;;;;;;0.60;0.60;;;14.40;99.90;;;;;;4996338;28;20181;-70
2021/12/30 06:28:57;;;;;;;1.33;1.23;;;14.40;99.90;;;;;;4996313;28;20184;-70
2021/12/30 06:31:23;;;;;;;0.63;0.63;;;14.40;99.90;;;;;;4996834;28;20228;-70
2021/12/30 06:33:48;;;;;;;0.67;0.60;;;14.40;99.90;;;;;;4996247;28;20207;-70
2021/12/30 06:36:14;;;;;;;2.13;1.13;;;14.40;99.90;;;;;;4996154;28;20169;-70
2021/12/30 06:38:40;;;;;;;1.00;0.67;;;14.40;99.90;;;;;;4995083;28;20551;-68
2021/12/30 06:41:05;;;;;;;0.60;0.60;;;14.40;99.90;;;;;;4995335;28;20180;-69
2021/12/30 06:43:31;;;;;;;0.80;0.73;;;14.50;99.90;;;;;;4996355;28;20268;-70
2021/12/30 06:45:57;;;;;;;0.67;0.60;;;14.50;99.90;;;;;;4995573;28;20210;-70
2021/12/30 06:48:22;;;;;;;0.60;0.60;;;14.50;99.90;;;;;;4994869;28;20169;-70
2021/12/30 06:50:54;;;;;;;0.80;0.73;;;14.50;99.90;;;;;;4995647;28;20231;-70
2021/12/30 06:53:21;;;;;;;1.33;0.63;;;14.50;99.90;;;;;;4996078;28;20212;-70
2021/12/30 06:55:48;;;;;;;0.60;0.60;;;14.50;99.90;;;;;;4995709;28;20431;-70
2021/12/30 06:58:14;;;;;;;0.60;0.57;;;14.50;99.90;;;;;;4994897;28;20412;-70
2021/12/30 07:00:40;;;;;;;0.63;0.60;;;14.50;99.90;;;;;;4994624;28;20623;-70
2021/12/30 07:03:05;;;;;;;0.77;0.63;;;14.50;99.90;;;;;;4995994;28;20500;-70
2021/12/30 07:05:32;;;;;;;0.80;0.80;;;14.50;99.90;;;;;;4994127;28;20227;-70
2021/12/30 07:07:57;;;;;;;0.67;0.60;;;14.40;99.90;;;;;;4995994;28;20189;-70
2021/12/30 07:10:23;;;;;;;1.87;1.67;;;14.50;99.90;;;;;;4995856;28;20404;-70
2021/12/30 07:12:49;;;;;;;1.00;1.00;;;14.50;99.90;;;;;;4995381;28;20216;-70
2021/12/30 07:15:14;;;;;;;0.70;0.60;;;14.50;99.90;;;;;;4994810;28;20176;-70
2021/12/30 07:17:40;;;;;;;0.60;0.60;;;14.50;99.90;;;;;;4995712;28;20173;-70
2021/12/30 07:20:07;;;;;;;0.70;0.60;;;14.50;99.90;;;;;;4980043;28;20169;-70
2021/12/30 07:22:33;;;;;;;0.70;0.60;;;14.50;99.90;;;;;;4974647;28;20420;-70
2021/12/30 07:24:59;;;;;;;0.60;0.60;;;14.60;99.90;;;;;;4990489;28;20482;-70
2021/12/30 07:27:24;;;;;;;0.60;0.60;;;14.60;99.90;;;;;;4993949;28;20710;-70
2021/12/30 07:29:50;;;;;;;0.70;0.70;;;14.60;99.90;;;;;;4995082;28;20219;-70
2021/12/30 07:32:15;;;;;;;0.67;0.63;;;14.60;99.90;;;;;;4995612;28;20646;-70
2021/12/30 07:34:41;;;;;;;0.70;0.60;;;14.60;99.90;;;;;;4993689;28;20712;-70
2021/12/30 07:37:07;;;;;;;1.40;0.80;;;14.60;99.90;;;;;;4994764;28;20177;-70
2021/12/30 07:39:32;;;;;;;0.60;0.60;;;14.60;99.90;;;;;;4994826;28;20192;-70
2021/12/30 07:41:58;;;;;;;0.60;0.60;;;14.60;99.90;;;;;;4995285;28;20201;-70
2021/12/30 07:44:23;;;;;;;0.90;0.90;;;14.60;99.90;;;;;;4994468;28;20236;-70
2021/12/30 07:46:49;;;;;;;0.80;0.80;;;14.60;99.90;;;;;;4994908;28;20169;-70
2021/12/30 07:49:15;;;;;;;0.80;0.77;;;14.60;99.90;;;;;;4994808;28;20172;-70
2021/12/30 07:51:40;;;;;;;0.73;0.73;;;14.60;99.90;;;;;;4993448;28;20203;-70
2021/12/30 07:54:06;;;;;;;0.90;0.90;;;14.60;99.90;;;;;;5009713;28;20208;-70
2021/12/30 07:56:31;;;;;;;0.80;0.70;;;14.70;99.90;;;;;;4994326;28;20514;-70
2021/12/30 07:58:58;;;;;;;0.60;0.60;;;14.70;99.90;;;;;;4992986;28;20647;-70
2021/12/30 08:01:23;;;;;;;1.43;0.90;;;14.70;99.90;;;;;;4994273;28;20172;-70
2021/12/30 08:03:49;;;;;;;0.83;0.70;;;14.70;99.90;;;;;;4994104;28;20431;-70
2021/12/30 08:06:15;;;;;;;0.70;0.60;;;14.70;99.90;;;;;;4993688;28;20295;-70
2021/12/30 08:08:40;;;;;;;0.73;0.70;;;14.70;99.90;;;;;;4984716;28;20172;-70
2021/12/30 08:11:06;;;;;;;0.80;0.70;;;14.80;99.90;;;;;;4991903;28;20173;-70
2021/12/30 08:13:32;;;;;;;1.20;1.10;;;14.80;99.90;;;;;;4994046;28;20662;-70
2021/12/30 08:15:57;;;;;;;0.60;0.60;;;14.80;99.90;;;;;;4995486;28;20176;-70
2021/12/30 08:18:23;;;;;;;0.80;0.70;;;14.80;99.90;;;;;;4995889;28;20180;-70
2021/12/30 08:20:48;;;;;;;0.60;0.60;;;14.80;99.90;;;;;;4994299;28;20242;-70
2021/12/30 08:23:14;;;;;;;0.70;0.60;;;14.80;99.90;;;;;;4991177;28;20704;-70
2021/12/30 08:25:39;;;;;;;0.80;0.80;;;14.80;99.90;;;;;;4993038;28;20201;-70
2021/12/30 08:28:05;;;;;;;0.80;0.80;;;14.90;99.90;;;;;;4993645;28;20234;-70
2021/12/30 08:30:31;;;;;;;1.00;1.00;;;14.90;99.90;;;;;;4993851;28;20165;-70
2021/12/30 08:32:57;;;;;;;0.70;0.60;;;14.90;99.90;;;;;;4993289;28;20173;-70
2021/12/30 08:35:23;;;;;;;0.70;0.60;;;14.90;99.90;;;;;;4993191;28;20165;-70
2021/12/30 08:37:51;;;;;;;1.23;0.80;;;14.90;99.90;;;;;;4994048;28;20462;-70
2021/12/30 08:40:17;;;;;;;0.60;0.60;;;15.00;99.90;;;;;;4992166;28;20419;-70
2021/12/30 08:42:43;;;;;;;1.30;1.20;;;14.90;99.90;;;;;;4993449;28;20416;-70
2021/12/30 08:45:10;;;;;;;1.77;1.23;;;14.90;99.90;;;;;;4992927;28;20459;-70
2021/12/30 08:47:37;;;;;;;0.80;0.80;;;14.90;99.90;;;;;;4993046;28;20427;-70
2021/12/30 08:50:08;;;;;;;0.70;0.60;;;14.90;99.90;;;;;;4993544;28;20415;-70
2021/12/30 08:52:34;;;;;;;0.70;0.60;;;14.90;99.90;;;;;;4991858;28;20442;-70
2021/12/30 08:55:04;;;;;;;1.17;0.83;;;14.90;99.90;;;;;;4993111;28;21016;-70
2021/12/30 08:57:30;;;;;;;0.70;0.60;;;15.00;99.90;;;;;;4992501;28;20505;-70
2021/12/30 08:59:55;;;;;;;0.70;0.60;;;15.00;99.90;;;;;;4991490;28;20835;-70
2021/12/30 09:02:21;;;;;;;0.70;0.60;;;15.10;99.90;;;;;;4977824;28;20424;-70
2021/12/30 09:04:47;;;;;;;0.80;0.80;;;15.10;99.90;;;;;;4992667;28;20697;-70
2021/12/30 09:07:15;;;;;;;0.70;0.60;;;15.10;99.90;;;;;;4992968;28;20168;-70
2021/12/30 09:09:41;;;;;;;0.90;0.90;;;15.10;99.90;;;;;;4985226;28;20448;-70
2021/12/30 09:12:07;;;;;;;0.83;0.83;;;15.20;99.90;;;;;;4972961;28;20444;-70
2021/12/30 09:14:33;;;;;;;0.70;0.60;;;15.20;99.90;;;;;;4974491;28;20798;-70
2021/12/30 09:16:58;;;;;;;0.70;0.60;;;15.20;99.90;;;;;;4978351;28;20503;-70
2021/12/30 09:19:24;;;;;;;0.80;0.80;;;15.20;99.90;;;;;;4994475;28;20234;-70
2021/12/30 09:21:50;;;;;;;0.70;0.70;;;15.30;99.90;;;;;;4976431;28;20177;-70
2021/12/30 09:24:15;;;;;;;0.70;0.60;;;15.40;99.90;;;;;;4990761;28;20200;-70
2021/12/30 09:26:41;;;;;;;0.70;0.60;;;15.40;99.90;;;;;;4997011;28;20258;-70
2021/12/30 09:29:10;;;;;;;0.70;0.60;;;15.50;99.90;;;;;;4994574;28;20168;-70
2021/12/30 09:31:44;;;;;;;0.70;0.60;;;15.50;99.90;;;;;;5007057;28;20248;-70
2021/12/30 09:34:11;;;;;;;0.70;0.60;;;15.50;99.90;;;;;;4996260;28;20534;-70
2021/12/30 09:36:36;;;;;;;0.70;0.60;;;15.50;99.90;;;;;;4995894;28;20420;-70
2021/12/30 09:39:05;;;;;;;1.00;0.90;;;15.50;99.90;;;;;;4997177;28;20434;-71
2021/12/30 09:41:31;;;;;;;0.80;0.70;;;15.40;99.90;;;;;;4997088;28;20191;-70
2021/12/30 09:43:56;;;;;;;0.80;0.80;;;15.50;99.90;;;;;;4995554;28;20490;-70
2021/12/30 09:46:23;;;;;;;0.70;0.60;;;15.40;99.90;;;;;;4996083;28;20424;-70
2021/12/30 09:48:49;;;;;;;0.80;0.60;;;15.40;99.90;;;;;;4984864;28;20169;-70
2021/12/30 09:51:15;;;;;;;0.70;0.70;;;15.50;99.90;;;;;;4995717;28;20424;-70
2021/12/30 09:53:40;;;;;;;0.70;0.60;;;15.60;99.90;;;;;;5003833;28;20676;-69
2021/12/30 09:56:06;;;;;;;0.70;0.70;;;15.70;99.90;;;;;;5017128;28;20712;-69
2021/12/30 09:58:32;;;;;;;0.70;0.60;;;15.80;99.90;;;;;;5003326;28;20934;-70
2021/12/30 10:01:00;;;;;;;0.70;0.60;;;15.80;99.90;;;;;;4978489;28;20261;-69
2021/12/30 10:03:27;;;;;;;0.70;0.60;;;15.90;99.90;;;;;;4984789;28;20189;-69
2021/12/30 10:05:53;;;;;;;0.70;0.60;;;16.00;99.90;;;;;;4992245;28;20462;-69
2021/12/30 10:08:24;;;;;;;0.70;0.60;;;15.90;99.90;;;;;;4997327;28;20404;-69
2021/12/30 10:10:56;;;;;;;0.70;0.60;;;15.90;99.90;;;;;;4980599;28;20429;-70
2021/12/30 10:13:29;;;;;;;0.70;0.60;;;15.90;99.90;;;;;;4985429;28;20440;-70
2021/12/30 10:15:57;;;;;;;0.70;0.60;;;15.80;99.90;;;;;;4996587;28;20411;-69
2021/12/30 10:18:24;;;;;;;0.70;0.60;;;15.80;99.90;;;;;;4977852;28;20427;-69
2021/12/30 10:20:50;;;;;;;0.90;0.90;;;15.80;99.90;;;;;;4982570;28;20425;-69
2021/12/30 10:23:22;;;;;;;0.70;0.60;;;15.70;99.90;;;;;;4976946;28;20520;-69
2021/12/30 10:25:53;;;;;;;0.70;0.60;;;15.70;99.90;;;;;;4976397;28;20828;-70
2021/12/30 10:28:36;;;;;;;0.70;0.60;;;15.70;99.90;;;;;;4977177;28;20969;-69
2021/12/30 10:31:13;;;;;;;0.70;0.70;;;15.70;99.90;;;;;;4978714;28;20425;-69
2021/12/30 10:34:04;;;;;;;0.70;0.60;;;15.70;99.90;;;;;;4995121;28;20427;-69
2021/12/30 10:36:36;;;;;;;0.70;0.70;;;15.70;99.90;;;;;;4994932;28;20431;-69
2021/12/30 10:39:21;;;;;;;1.50;1.00;;;15.80;99.90;;;;;;4993847;28;20592;-69
2021/12/30 10:41:50;;;;;;;0.70;0.60;;;15.80;99.90;;;;;;4994069;28;20489;-69
2021/12/30 10:44:17;;;;;;;0.70;0.60;;;15.80;99.90;;;;;;4995255;28;20539;-69
2021/12/30 10:46:43;;;;;;;0.70;0.60;;;15.80;99.90;;;;;;4993748;28;20439;-69
2021/12/30 10:49:24;;;;;;;0.70;0.60;;;15.80;99.90;;;;;;4985436;28;20412;-69
2021/12/30 10:51:54;;;;;;;0.70;0.60;;;15.80;99.90;;;;;;4976474;28;20802;-69
2021/12/30 10:54:25;;;;;;;1.67;1.13;;;15.80;99.90;;;;;;4980187;28;20828;-69
2021/12/30 10:57:05;;;;;;;0.70;0.63;;;15.80;99.90;;;;;;4989932;28;20430;-69
2021/12/30 10:59:31;;;;;;;0.90;0.80;;;15.90;99.90;;;;;;5001543;28;20422;-69
2021/12/30 11:02:08;;;;;;;0.80;0.60;;;15.90;99.90;;;;;;4998513;28;20490;-69
2021/12/30 11:04:38;;;;;;;0.70;0.60;;;15.90;99.90;;;;;;4992802;28;21184;-69
2021/12/30 11:07:06;;;;;;;0.70;0.60;;;15.90;99.90;;;;;;4991624;28;20793;-69
2021/12/30 11:09:32;;;;;;;1.97;1.10;;;15.90;99.90;;;;;;4994286;28;20404;-69
2021/12/30 11:12:00;;;;;;;1.67;1.57;;;16.00;99.90;;;;;;4994741;28;20447;-69
2021/12/30 11:14:35;;;;;;;0.70;0.60;;;16.00;99.90;;;;;;4990006;28;20193;-69
2021/12/30 11:17:04;;;;;;;0.70;0.60;;;16.00;99.90;;;;;;4979532;28;20432;-69
2021/12/30 11:19:31;;;;;;;1.30;0.93;;;15.90;99.90;;;;;;4973461;28;20413;-69
2021/12/30 11:21:59;;;;;;;0.70;0.50;;;15.90;99.90;;;;;;4989364;28;20431;-69
2021/12/30 11:24:27;;;;;;;0.70;0.60;;;16.00;99.90;;;;;;4999798;28;20910;-69
2021/12/30 11:26:53;;;;;;;0.70;0.60;;;16.00;99.90;;;;;;4989218;28;20482;-69
2021/12/30 11:29:20;;;;;;;0.70;0.60;;;16.00;99.90;;;;;;4993449;28;20466;-69
2021/12/30 11:31:46;;;;;;;0.80;0.70;;;16.00;99.90;;;;;;4993727;28;20404;-70
2021/12/30 11:34:12;;;;;;;2.00;1.90;;;16.00;99.90;;;;;;4993418;28;20474;-70
2021/12/30 11:36:37;;;;;;;0.70;0.60;;;16.10;99.90;;;;;;4993429;28;20261;-69
2021/12/30 11:39:12;;;;;;;1.10;0.87;;;16.20;99.90;;;;;;4993639;28;20503;-69
2021/12/30 11:41:39;;;;;;;0.70;0.60;;;16.30;99.90;;;;;;4989142;28;20618;-69
2021/12/30 11:44:05;;;;;;;0.70;0.60;;;16.40;99.90;;;;;;4993227;28;20822;-69
2021/12/30 11:46:38;;;;;;;1.47;1.37;;;16.50;99.90;;;;;;4992691;28;20436;-69
2021/12/30 11:49:06;;;;;;;0.70;0.60;;;16.60;99.90;;;;;;4993485;28;20172;-69
2021/12/30 11:51:52;;;;;;;0.77;0.70;;;16.60;99.90;;;;;;4993500;28;20769;-70
2021/12/30 11:54:35;;;;;;;2.30;2.20;;;16.80;99.90;;;;;;5001435;28;20993;-69
2021/12/30 11:57:27;;;;;;;1.07;0.70;;;16.90;99.90;;;;;;4978790;28;20424;-68
2021/12/30 11:59:54;;;;;;;0.70;0.60;;;17.30;99.90;;;;;;4993435;28;20491;-69
2021/12/30 12:02:33;;;;;;;0.80;0.80;;;17.30;99.90;;;;;;4991984;28;20845;-69
2021/12/30 12:05:37;;;;;;;0.90;0.80;;;17.30;99.90;;;;;;4990979;28;20487;-69
2021/12/30 12:08:16;;;;;;;1.03;1.00;;;17.10;99.90;;;;;;4982611;28;20419;-70
2021/12/30 12:10:44;;;;;;;0.80;0.80;;;17.00;99.90;;;;;;4993152;28;20403;-69
2021/12/30 12:13:32;;;;;;;0.70;0.60;;;17.00;99.90;;;;;;4993117;28;20427;-69
2021/12/30 12:15:58;;;;;;;0.70;0.60;;;17.00;99.90;;;;;;4993373;28;20523;-70
2021/12/30 12:18:25;;;;;;;0.80;0.70;;;16.90;99.90;;;;;;4994418;28;20984;-69
2021/12/30 12:20:52;;;;;;;0.70;0.60;;;16.80;99.90;;;;;;4976304;28;20416;-69
2021/12/30 12:23:48;;;;;;;0.70;0.60;;;16.80;99.90;;;;;;4984619;28;20439;-69
2021/12/30 12:26:18;;;;;;;0.70;0.70;;;16.80;99.90;;;;;;4992974;28;20988;-70
2021/12/30 12:28:47;;;;;;;0.73;0.73;;;16.70;99.90;;;;;;4993830;28;20431;-69
2021/12/30 12:31:13;;;;;;;0.70;0.60;;;16.70;99.90;;;;;;4993022;28;20759;-69
2021/12/30 12:33:41;;;;;;;0.80;0.70;;;16.70;99.90;;;;;;4992587;28;20723;-69
2021/12/30 12:36:18;;;;;;;0.70;0.57;;;16.70;99.90;;;;;;4990165;28;20180;-69
2021/12/30 12:38:48;;;;;;;0.70;0.60;;;16.60;99.90;;;;;;4974680;28;20415;-69
2021/12/30 12:41:29;;;;;;;0.70;0.70;;;16.50;99.90;;;;;;4974836;28;20397;-69
2021/12/30 12:44:06;;;;;;;0.80;0.80;;;16.60;99.90;;;;;;4974504;28;20421;-69
2021/12/30 12:46:49;;;;;;;0.70;0.60;;;16.60;99.90;;;;;;4975495;28;20909;-69